createdAt,value
2022-12-01T00:00:20.295Z,6.40
2022-12-01T00:03:23.100Z,4.97
2022-12-01T00:06:25.556Z,5.88
2022-12-01T00:09:46.393Z,6.13
2022-12-01T00:12:48.979Z,7.20
2022-12-01T00:15:51.379Z,6.05
2022-12-01T00:18:53.847Z,6.53
2022-12-01T00:21:56.400Z,5.95
2022-12-01T00:24:58.805Z,6.60
2022-12-01T00:28:01.202Z,5.25
2022-12-01T00:31:08.149Z,5.50
2022-12-01T00:34:24.952Z,3.63
2022-12-01T00:37:29.828Z,4.25
2022-12-01T00:40:32.304Z,5.10
2022-12-01T00:43:34.955Z,4.88
2022-12-01T00:46:37.471Z,5.38
2022-12-01T00:49:40.195Z,5.70
2022-12-01T00:52:42.697Z,5.03
2022-12-01T00:55:45.205Z,5.50
2022-12-01T00:58:47.936Z,4.85
2022-12-01T01:01:50.442Z,4.38
2022-12-01T01:04:53.586Z,4.85
2022-12-01T01:07:56.009Z,4.60
2022-12-01T01:11:00.187Z,4.07
2022-12-01T01:14:03.045Z,3.47
2022-12-01T01:17:05.898Z,4.03
2022-12-01T01:20:09.124Z,3.92
2022-12-01T01:23:11.595Z,4.32
2022-12-01T01:26:17.153Z,4.80
2022-12-01T01:29:20.091Z,4.95
2022-12-01T01:32:22.474Z,4.80
2022-12-01T01:35:24.924Z,4.65
2022-12-01T01:38:28.477Z,4.15
2022-12-01T01:41:30.953Z,3.90
2022-12-01T01:44:56.310Z,4.75
2022-12-01T01:47:59.902Z,3.67
2022-12-01T01:51:02.584Z,4.55
2022-12-01T01:54:08.646Z,4.45
2022-12-01T01:57:12.472Z,4.40
2022-12-01T02:00:18.193Z,4.28
2022-12-01T02:03:20.919Z,3.85
2022-12-01T02:06:24.636Z,3.92
2022-12-01T02:09:27.672Z,3.60
2022-12-01T02:13:15.996Z,3.80
2022-12-01T02:16:35.935Z,3.53
2022-12-01T02:20:02.649Z,4.25
2022-12-01T02:23:26.589Z,2.85
2022-12-01T02:26:39.764Z,3.03
2022-12-01T02:30:00.671Z,2.37
2022-12-01T02:33:24.225Z,3.28
2022-12-01T02:36:37.459Z,3.65
2022-12-01T02:40:02.063Z,3.33
2022-12-01T02:43:08.080Z,6.90
2022-12-01T02:46:32.549Z,4.47
2022-12-01T02:49:37.497Z,4.57
2022-12-01T02:52:40.588Z,3.75
2022-12-01T02:55:52.021Z,4.20
2022-12-01T02:58:54.579Z,6.40
2022-12-01T03:02:00.210Z,7.10
2022-12-01T03:05:05.637Z,9.55
2022-12-01T03:08:19.587Z,5.10
2022-12-01T03:11:28.924Z,5.28
2022-12-01T03:14:51.085Z,5.65
2022-12-01T03:17:59.374Z,6.47
2022-12-01T03:21:09.761Z,5.97
2022-12-01T03:24:17.581Z,5.97
2022-12-01T03:27:23.091Z,6.07
2022-12-01T03:30:26.199Z,5.65
2022-12-01T03:33:35.953Z,6.93
2022-12-01T03:36:48.406Z,7.97
2022-12-01T03:39:55.868Z,10.00
2022-12-01T03:43:03.951Z,12.15
2022-12-01T03:46:41.168Z,11.73
2022-12-01T03:49:45.272Z,6.63
2022-12-01T03:52:58.583Z,6.68
2022-12-01T03:56:03.555Z,8.20
2022-12-01T03:59:07.558Z,7.68
2022-12-01T04:02:10.125Z,8.70
2022-12-01T04:05:12.875Z,11.10
2022-12-01T04:08:15.290Z,13.43
2022-12-01T04:11:36.136Z,11.57
2022-12-01T04:14:38.626Z,9.75
2022-12-01T04:17:45.115Z,7.47
2022-12-01T04:20:50.651Z,6.93
2022-12-01T04:24:02.074Z,4.88
2022-12-01T04:27:04.497Z,5.38
2022-12-01T04:30:08.041Z,4.20
2022-12-01T04:33:10.425Z,4.30
2022-12-01T04:36:12.808Z,4.00
2022-12-01T04:39:15.294Z,3.63
2022-12-01T04:42:17.720Z,3.92
2022-12-01T04:45:20.127Z,3.80
2022-12-01T04:48:22.574Z,3.65
2022-12-01T04:51:25.002Z,2.63
2022-12-01T04:54:27.541Z,3.78
2022-12-01T04:57:29.960Z,2.45
2022-12-01T05:00:33.511Z,3.70
2022-12-01T05:03:38.218Z,3.15
2022-12-01T05:06:41.187Z,4.47
2022-12-01T05:09:43.699Z,6.43
2022-12-01T05:12:46.405Z,4.13
2022-12-01T05:15:49.046Z,3.65
2022-12-01T05:19:16.557Z,3.65
2022-12-01T05:22:31.486Z,4.30
2022-12-01T05:25:42.502Z,4.78
2022-12-01T05:28:44.937Z,3.83
2022-12-01T05:31:47.541Z,5.35
2022-12-01T05:34:50.123Z,4.53
2022-12-01T05:37:52.594Z,4.60
2022-12-01T05:40:56.046Z,4.45
2022-12-01T05:43:58.525Z,5.57
2022-12-01T05:47:00.982Z,5.35
2022-12-01T05:50:05.903Z,6.30
2022-12-01T05:53:11.299Z,6.93
2022-12-01T05:56:13.793Z,7.22
2022-12-01T05:59:16.274Z,7.60
2022-12-01T06:02:18.933Z,5.53
2022-12-01T06:05:21.444Z,7.65
2022-12-01T06:08:24.025Z,7.33
2022-12-01T06:11:26.471Z,7.82
2022-12-01T06:14:28.951Z,10.40
2022-12-01T06:17:34.584Z,9.00
2022-12-01T06:20:39.426Z,14.65
2022-12-01T06:23:41.918Z,18.03
2022-12-01T06:26:44.271Z,19.25
2022-12-01T06:29:46.711Z,20.45
2022-12-01T06:32:49.184Z,16.05
2022-12-01T06:35:59.184Z,66.97
2022-12-01T06:39:01.575Z,29.93
2022-12-01T06:42:04.052Z,32.25
2022-12-01T06:45:06.898Z,34.25
2022-12-01T06:48:09.523Z,22.30
2022-12-01T06:51:11.942Z,23.20
2022-12-01T06:54:15.249Z,20.30
2022-12-01T06:57:17.633Z,12.15
2022-12-01T07:00:20.601Z,9.75
2022-12-01T07:03:23.145Z,9.27
2022-12-01T07:06:25.704Z,10.27
2022-12-01T07:09:28.136Z,9.93
2022-12-01T07:12:31.828Z,6.53
2022-12-01T07:15:34.227Z,9.68
2022-12-01T07:18:37.418Z,7.13
2022-12-01T07:21:46.467Z,5.55
2022-12-01T07:24:48.900Z,5.37
2022-12-01T07:27:51.384Z,5.43
2022-12-01T07:30:53.775Z,6.95
2022-12-01T07:33:57.501Z,8.65
2022-12-01T07:36:59.905Z,5.97
2022-12-01T07:40:02.456Z,4.97
2022-12-01T07:43:05.114Z,5.32
2022-12-01T07:46:22.813Z,4.45
2022-12-01T07:49:26.349Z,5.60
2022-12-01T07:52:28.910Z,5.38
2022-12-01T07:55:31.312Z,5.97
2022-12-01T07:58:34.096Z,6.45
2022-12-01T08:01:39.257Z,4.30
2022-12-01T08:04:45.458Z,4.88
2022-12-01T08:07:48.037Z,3.22
2022-12-01T08:10:50.755Z,10.90
2022-12-01T08:13:53.508Z,4.85
2022-12-01T08:16:55.916Z,4.45
2022-12-01T08:19:58.717Z,3.65
2022-12-01T08:23:01.795Z,6.45
2022-12-01T08:26:06.667Z,4.87
2022-12-01T08:29:09.324Z,3.17
2022-12-01T08:32:11.916Z,4.38
2022-12-01T08:35:15.385Z,4.15
2022-12-01T08:38:18.164Z,4.53
2022-12-01T08:41:21.652Z,4.40
2022-12-01T08:44:24.088Z,3.95
2022-12-01T08:47:28.902Z,6.25
2022-12-01T08:50:31.583Z,4.18
2022-12-01T08:53:35.511Z,3.80
2022-12-01T08:56:43.317Z,4.60
2022-12-01T08:59:45.832Z,4.50
2022-12-01T09:02:49.471Z,5.38
2022-12-01T09:05:51.960Z,4.03
2022-12-01T09:08:54.363Z,4.43
2022-12-01T09:11:57.261Z,4.20
2022-12-01T09:15:02.193Z,3.67
2022-12-01T09:18:04.936Z,3.72
2022-12-01T09:21:24.028Z,4.18
2022-12-01T09:24:27.384Z,4.70
2022-12-01T09:27:29.800Z,4.50
2022-12-01T09:30:32.283Z,6.72
2022-12-01T09:33:35.000Z,5.55
2022-12-01T09:36:38.155Z,4.50
2022-12-01T09:39:40.601Z,4.18
2022-12-01T09:42:44.611Z,4.23
2022-12-01T09:45:50.625Z,4.05
2022-12-01T09:48:54.341Z,3.67
2022-12-01T09:51:56.745Z,3.55
2022-12-01T09:55:00.408Z,3.85
2022-12-01T09:58:04.496Z,3.00
2022-12-01T10:01:15.692Z,4.18
2022-12-01T10:04:31.095Z,3.95
2022-12-01T10:07:40.319Z,3.65
2022-12-01T10:10:46.432Z,3.38
2022-12-01T10:13:48.908Z,3.57
2022-12-01T10:17:03.971Z,3.20
2022-12-01T10:20:13.357Z,3.92
2022-12-01T10:23:43.844Z,4.05
2022-12-01T10:26:52.328Z,4.10
2022-12-01T10:29:58.907Z,4.97
2022-12-01T10:33:24.274Z,4.03
2022-12-01T10:36:27.668Z,4.30
2022-12-01T10:39:40.250Z,8.38
2022-12-01T10:42:48.316Z,5.90
2022-12-01T10:45:51.111Z,5.33
2022-12-01T10:48:58.918Z,7.82
2022-12-01T10:52:01.891Z,6.20
2022-12-01T10:55:26.493Z,7.40
2022-12-01T10:58:31.924Z,5.72
2022-12-01T11:01:35.933Z,8.37
2022-12-01T11:04:56.236Z,5.32
2022-12-01T11:07:59.122Z,3.53
2022-12-01T11:11:01.840Z,5.45
2022-12-01T11:14:17.980Z,6.55
2022-12-01T11:17:26.282Z,6.37
2022-12-01T11:20:39.688Z,4.85
2022-12-01T11:23:50.665Z,3.75
2022-12-01T11:26:53.370Z,5.40
2022-12-01T11:29:58.292Z,5.85
2022-12-01T11:33:02.991Z,4.47
2022-12-01T11:36:11.838Z,3.92
2022-12-01T11:39:44.443Z,5.47
2022-12-01T11:42:55.814Z,4.63
2022-12-01T11:46:00.772Z,4.10
2022-12-01T11:49:04.055Z,4.47
2022-12-01T11:52:28.099Z,5.35
2022-12-01T11:55:31.696Z,4.85
2022-12-01T11:58:34.149Z,8.73
2022-12-01T12:01:49.458Z,5.80
2022-12-01T12:05:03.343Z,5.30
2022-12-01T12:08:18.102Z,5.47
2022-12-01T12:11:49.674Z,5.53
2022-12-01T12:15:29.835Z,8.65
2022-12-01T12:19:07.905Z,5.82
2022-12-01T12:22:19.335Z,5.80
2022-12-01T12:25:30.957Z,7.25
2022-12-01T12:29:13.950Z,7.50
2022-12-01T12:32:28.502Z,8.75
2022-12-01T12:36:02.414Z,6.38
2022-12-01T12:39:24.493Z,5.83
2022-12-01T12:42:53.055Z,7.60
2022-12-01T12:46:07.809Z,5.72
2022-12-01T12:49:20.709Z,5.32
2022-12-01T12:52:26.857Z,5.95
2022-12-01T12:56:05.516Z,6.27
2022-12-01T12:59:12.057Z,5.53
2022-12-01T13:02:20.653Z,6.20
2022-12-01T13:05:36.266Z,5.80
2022-12-01T13:08:44.371Z,4.80
2022-12-01T13:12:22.217Z,5.50
2022-12-01T13:15:25.195Z,6.18
2022-12-01T13:18:44.023Z,6.28
2022-12-01T13:21:48.893Z,9.70
2022-12-01T13:24:52.312Z,5.70
2022-12-01T13:27:55.591Z,5.97
2022-12-01T13:31:00.352Z,6.57
2022-12-01T13:34:05.421Z,5.82
2022-12-01T13:37:09.227Z,9.85
2022-12-01T13:40:25.199Z,6.15
2022-12-01T13:43:27.619Z,6.57
2022-12-01T13:46:51.334Z,9.43
2022-12-01T13:49:53.976Z,9.60
2022-12-01T13:53:12.561Z,15.65
2022-12-01T13:56:17.939Z,16.77
2022-12-01T14:00:02.845Z,14.40
2022-12-01T14:03:17.637Z,11.50
2022-12-01T14:06:41.066Z,12.25
2022-12-01T14:09:44.239Z,9.73
2022-12-01T14:12:46.900Z,8.18
2022-12-01T14:15:57.299Z,8.10
2022-12-01T14:18:59.738Z,6.70
2022-12-01T14:22:04.448Z,7.28
2022-12-01T14:25:22.652Z,6.55
2022-12-01T14:29:10.889Z,5.50
2022-12-01T14:32:16.301Z,5.80
2022-12-01T14:35:18.906Z,6.03
2022-12-01T14:38:22.189Z,7.53
2022-12-01T14:41:30.771Z,6.95
2022-12-01T14:44:33.239Z,7.50
2022-12-01T14:47:42.645Z,6.60
2022-12-01T14:50:51.476Z,8.27
2022-12-01T14:53:55.047Z,9.00
2022-12-01T14:57:04.459Z,7.47
2022-12-01T15:00:19.656Z,8.00
2022-12-01T15:03:25.386Z,6.93
2022-12-01T15:06:31.751Z,8.25
2022-12-01T15:09:35.151Z,6.72
2022-12-01T15:12:38.063Z,7.68
2022-12-01T15:15:53.735Z,8.48
2022-12-01T15:18:58.611Z,8.30
2022-12-01T15:22:05.753Z,7.85
2022-12-01T15:25:13.852Z,9.00
2022-12-01T15:28:19.706Z,10.25
2022-12-01T15:31:22.143Z,15.07
2022-12-01T15:34:39.414Z,14.13
2022-12-01T15:37:45.269Z,14.18
2022-12-01T15:44:20.849Z,14.10
2022-12-01T15:47:37.807Z,14.18
2022-12-01T15:50:46.138Z,18.37
2022-12-01T15:53:54.749Z,32.72
2022-12-01T15:56:59.100Z,45.85
2022-12-01T16:00:01.645Z,41.20
2022-12-01T16:03:04.311Z,52.45
2022-12-01T16:06:11.697Z,116.37
2022-12-01T16:09:26.253Z,122.75
2022-12-01T16:12:33.045Z,104.47
2022-12-01T16:15:42.862Z,88.20
2022-12-01T16:18:53.230Z,97.10
2022-12-01T16:22:04.730Z,84.50
2022-12-01T16:25:38.382Z,75.65
2022-12-01T16:28:40.823Z,59.72
2022-12-01T16:32:05.130Z,66.18
2022-12-01T16:35:07.625Z,75.28
2022-12-01T16:38:25.104Z,69.53
2022-12-01T16:41:37.695Z,68.05
2022-12-01T16:44:41.867Z,54.30
2022-12-01T16:47:46.191Z,55.78
2022-12-01T16:50:49.891Z,58.35
2022-12-01T16:53:52.725Z,51.73
2022-12-01T16:56:55.381Z,54.25
2022-12-01T16:59:57.913Z,45.05
2022-12-01T17:03:00.836Z,43.78
2022-12-01T17:06:04.068Z,44.78
2022-12-01T17:09:06.510Z,41.17
2022-12-01T17:12:08.959Z,47.45
2022-12-01T17:15:12.099Z,60.83
2022-12-01T17:18:16.435Z,60.47
2022-12-01T17:21:18.950Z,57.97
2022-12-01T17:24:21.413Z,57.23
2022-12-01T17:27:25.215Z,73.57
2022-12-01T17:30:27.853Z,67.60
2022-12-01T17:33:30.621Z,59.78
2022-12-01T17:36:33.146Z,60.03
2022-12-01T17:39:37.076Z,48.47
2022-12-01T17:42:39.669Z,41.25
2022-12-01T17:45:43.043Z,40.83
2022-12-01T17:48:46.494Z,44.05
2022-12-01T17:51:49.197Z,52.08
2022-12-01T17:54:51.923Z,54.43
2022-12-01T17:57:54.842Z,48.60
2022-12-01T18:00:57.253Z,49.33
2022-12-01T18:03:59.738Z,23.02
2022-12-01T18:07:02.155Z,21.00
2022-12-01T18:10:05.269Z,34.83
2022-12-01T18:13:07.983Z,42.00
2022-12-01T18:16:19.661Z,39.40
2022-12-01T18:19:22.233Z,33.30
2022-12-01T18:22:24.610Z,31.20
2022-12-01T18:25:27.308Z,30.53
2022-12-01T18:28:29.925Z,54.83
2022-12-01T18:31:33.203Z,42.17
2022-12-01T18:34:35.765Z,54.20
2022-12-01T18:37:40.380Z,63.28
2022-12-01T18:40:43.230Z,83.77
2022-12-01T18:43:45.881Z,88.40
2022-12-01T18:46:48.624Z,85.63
2022-12-01T18:49:51.364Z,101.07
2022-12-01T18:52:53.788Z,99.40
2022-12-01T18:55:57.026Z,94.03
2022-12-01T18:59:01.951Z,88.20
2022-12-01T19:02:04.764Z,109.55
2022-12-01T19:05:07.697Z,109.57
2022-12-01T19:08:10.588Z,105.30
2022-12-01T19:11:13.753Z,111.70
2022-12-01T19:14:18.167Z,120.75
2022-12-01T19:17:21.875Z,115.97
2022-12-01T19:20:24.602Z,113.20
2022-12-01T19:23:27.674Z,69.47
2022-12-01T19:26:30.377Z,61.60
2022-12-01T19:29:33.081Z,59.33
2022-12-01T19:32:36.485Z,63.42
2022-12-01T19:35:39.104Z,29.17
2022-12-01T19:38:41.892Z,26.27
2022-12-01T19:41:44.688Z,19.27
2022-12-01T19:44:47.639Z,17.13
2022-12-01T19:47:51.575Z,16.35
2022-12-01T19:50:54.405Z,24.15
2022-12-01T19:53:57.534Z,21.83
2022-12-01T19:57:00.005Z,28.27
2022-12-01T20:00:02.952Z,29.48
2022-12-01T20:03:14.660Z,22.10
2022-12-01T20:06:22.514Z,19.73
2022-12-01T20:09:25.804Z,19.23
2022-12-01T20:12:28.607Z,19.20
2022-12-01T20:15:32.780Z,19.38
2022-12-01T20:18:36.299Z,21.23
2022-12-01T20:21:42.534Z,35.05
2022-12-01T20:24:45.363Z,28.50
2022-12-01T20:27:47.757Z,21.37
2022-12-01T20:30:50.260Z,21.85
2022-12-01T20:33:56.189Z,24.55
2022-12-01T20:36:59.267Z,20.60
2022-12-01T20:40:02.084Z,42.17
2022-12-01T20:43:04.924Z,59.33
2022-12-01T20:46:07.836Z,62.55
2022-12-01T20:49:11.241Z,42.28
2022-12-01T20:52:13.947Z,38.47
2022-12-01T20:55:16.857Z,49.00
2022-12-01T20:58:19.657Z,39.87
2022-12-01T21:01:22.795Z,51.10
2022-12-01T21:04:25.399Z,37.17
2022-12-01T21:07:27.865Z,39.30
2022-12-01T21:10:30.348Z,32.03
2022-12-01T21:13:39.552Z,25.43
2022-12-01T21:16:48.117Z,34.10
2022-12-01T21:20:07.082Z,27.02
2022-12-01T21:23:15.072Z,37.33
2022-12-01T21:26:18.991Z,38.05
2022-12-01T21:29:27.867Z,29.57
2022-12-01T21:32:32.245Z,27.77
2022-12-01T21:35:34.758Z,27.42
2022-12-01T21:38:37.455Z,24.17
2022-12-01T21:41:40.784Z,26.70
2022-12-01T21:44:43.356Z,29.17
2022-12-01T21:47:45.805Z,35.70
2022-12-01T21:50:53.791Z,30.10
2022-12-01T21:53:56.759Z,30.70
2022-12-01T21:56:59.199Z,39.10
2022-12-01T22:00:33.699Z,38.73
2022-12-01T22:03:40.089Z,37.35
2022-12-01T22:06:45.435Z,34.17
2022-12-01T22:09:54.614Z,33.42
2022-12-01T22:12:57.032Z,27.30
2022-12-01T22:15:59.577Z,26.80
2022-12-01T22:19:20.240Z,32.28
2022-12-01T22:22:25.159Z,37.63
2022-12-01T22:25:28.458Z,34.70
2022-12-01T22:28:31.219Z,36.15
2022-12-01T22:31:34.202Z,34.80
2022-12-01T22:34:36.822Z,35.55
2022-12-01T22:37:50.181Z,37.08
2022-12-01T22:41:14.462Z,43.35
2022-12-01T22:44:17.280Z,45.17
2022-12-01T22:47:19.734Z,45.77
2022-12-01T22:50:30.568Z,37.88
2022-12-01T22:53:32.915Z,39.30
2022-12-01T22:56:50.065Z,40.17
2022-12-01T22:59:53.221Z,41.50
2022-12-01T23:02:55.907Z,38.80
2022-12-01T23:05:58.548Z,40.67
2022-12-01T23:09:01.820Z,33.58
2022-12-01T23:12:10.104Z,30.10
2022-12-01T23:15:35.361Z,32.13
2022-12-01T23:18:37.906Z,28.07
2022-12-01T23:21:40.768Z,29.15
2022-12-01T23:24:43.673Z,28.42
2022-12-01T23:27:48.733Z,34.58
2022-12-01T23:30:54.459Z,39.75
2022-12-01T23:33:56.913Z,38.50
2022-12-01T23:36:59.360Z,39.53
2022-12-01T23:40:03.093Z,42.45
2022-12-01T23:43:17.826Z,34.95
2022-12-01T23:46:25.329Z,29.85
2022-12-01T23:49:30.221Z,25.57
2022-12-01T23:52:35.482Z,24.38
2022-12-01T23:55:37.898Z,28.67
2022-12-01T23:58:40.781Z,30.40
